Time;durP1;ratioP1;P1;durP2;ratioP2;P2;SDS_P1;SDS_P2;PMS_P1;PMS_P2;Temp;Humidity;BMP_temperature;BMP_pressure;BME280_temperature;BME280_humidity;BME280_pressure;Samples;Min_cycle;Max_cycle;Signal;HPM_P1;HPM_P2
2021/10/07 00:01:50;;;;;;;118.82;62.92;;;;;;;;;;5044636;28;20118;-57
2021/10/07 00:04:16;;;;;;;120.95;57.22;;;;;;;;;;5044839;28;20087;-58
2021/10/07 00:06:42;;;;;;;101.93;43.33;;;;;;;;;;5041554;28;20071;-56
2021/10/07 00:09:08;;;;;;;100.93;50.38;;;;;;;;;;5049220;28;20963;-57
2021/10/07 00:11:35;;;;;;;101.07;49.67;;;;;;;;;;5055410;28;20091;-58
2021/10/07 00:14:05;;;;;;;91.20;45.50;;;;;;;;;;5051348;28;20059;-56
2021/10/07 00:16:31;;;;;;;88.93;42.20;;;;;;;;;;5058026;28;20383;-58
2021/10/07 00:18:57;;;;;;;125.75;58.40;;;;;;;;;;5046115;28;20051;-58
2021/10/07 00:21:23;;;;;;;109.00;51.35;;;;;;;;;;5044849;28;20056;-59
2021/10/07 00:24:08;;;;;;;117.57;60.83;;;;;;;;;;5043303;28;20029;-55
2021/10/07 00:26:38;;;;;;;106.85;42.78;;;;;;;;;;5041153;28;20052;-57
2021/10/07 00:29:22;;;;;;;108.18;54.95;;;;;;;;;;5042783;28;20048;-58
2021/10/07 00:31:52;;;;;;;119.60;56.10;;;;;;;;;;5043035;28;20045;-59
2021/10/07 00:34:31;;;;;;;76.75;37.65;;;;;;;;;;5050866;28;20047;-58
2021/10/07 00:37:20;;;;;;;79.72;42.30;;;;;;;;;;5043927;28;20143;-57
2021/10/07 00:39:46;;;;;;;121.95;56.30;;;;;;;;;;5041017;28;20421;-56
2021/10/07 00:42:12;;;;;;;106.82;51.47;;;;;;;;;;5040563;28;20626;-58
2021/10/07 00:44:44;;;;;;;96.85;48.75;;;;;;;;;;5055508;28;20041;-58
2021/10/07 00:47:10;;;;;;;108.93;50.10;;;;;;;;;;5040134;28;20048;-58
2021/10/07 00:49:39;;;;;;;88.22;46.95;;;;;;;;;;5041357;28;20052;-59
2021/10/07 00:52:06;;;;;;;104.93;46.78;;;;;;;;;;5041815;28;20540;-58
2021/10/07 00:54:32;;;;;;;107.53;50.50;;;;;;;;;;5042621;28;20045;-56
2021/10/07 00:57:01;;;;;;;82.28;41.15;;;;;;;;;;5041362;28;20040;-59
2021/10/07 00:59:27;;;;;;;81.10;39.38;;;;;;;;;;5041166;28;20049;-56
2021/10/07 01:01:52;;;;;;;106.75;44.92;;;;;;;;;;5031982;28;20114;-56
2021/10/07 01:04:18;;;;;;;94.75;45.35;;;;;;;;;;5042978;28;20033;-58
2021/10/07 01:06:44;;;;;;;90.50;47.75;;;;;;;;;;5041038;28;20064;-58
2021/10/07 01:09:10;;;;;;;101.05;48.50;;;;;;;;;;4486868;22;20046;-61
2021/10/07 01:11:36;;;;;;;81.97;38.13;;;;;;;;;;4987451;28;20110;-59
2021/10/07 01:14:02;;;;;;;76.10;38.20;;;;;;;;;;4993407;28;20034;-63
2021/10/07 01:16:28;;;;;;;92.25;43.28;;;;;;;;;;4995542;28;20102;-56
2021/10/07 01:18:54;;;;;;;88.72;39.65;;;;;;;;;;5000787;28;20046;-58
2021/10/07 01:21:20;;;;;;;73.82;32.47;;;;;;;;;;4981174;28;20049;-60
2021/10/07 01:23:46;;;;;;;80.35;41.67;;;;;;;;;;4973938;28;20104;-60
2021/10/07 01:26:14;;;;;;;66.53;30.27;;;;;;;;;;4988271;28;20074;-60
2021/10/07 01:28:41;;;;;;;82.50;36.67;;;;;;;;;;4972399;28;20042;-58
2021/10/07 01:31:07;;;;;;;80.57;37.75;;;;;;;;;;4973948;28;20045;-60
2021/10/07 01:33:33;;;;;;;72.40;35.35;;;;;;;;;;4989267;28;20472;-57
2021/10/07 01:35:59;;;;;;;64.25;31.13;;;;;;;;;;4971400;28;20045;-57
2021/10/07 01:38:25;;;;;;;70.63;31.73;;;;;;;;;;4973213;28;20038;-58
2021/10/07 01:40:51;;;;;;;85.45;39.10;;;;;;;;;;4989993;28;20047;-57
2021/10/07 01:43:17;;;;;;;65.60;27.30;;;;;;;;;;4974354;28;20046;-61
2021/10/07 01:45:45;;;;;;;79.25;34.67;;;;;;;;;;4976196;28;20042;-59
2021/10/07 01:48:11;;;;;;;74.90;31.30;;;;;;;;;;5003976;28;20045;-57
2021/10/07 01:50:37;;;;;;;66.22;31.90;;;;;;;;;;4979514;28;20466;-60
2021/10/07 01:53:03;;;;;;;50.70;25.65;;;;;;;;;;4977072;28;20038;-59
2021/10/07 01:55:29;;;;;;;50.70;25.38;;;;;;;;;;4972980;28;20041;-56
2021/10/07 01:57:54;;;;;;;68.45;28.42;;;;;;;;;;4975767;28;20034;-62
2021/10/07 02:00:20;;;;;;;67.50;29.35;;;;;;;;;;4989639;28;20495;-60
2021/10/07 02:02:46;;;;;;;62.10;30.42;;;;;;;;;;4991093;28;20085;-63
2021/10/07 02:05:12;;;;;;;60.47;29.48;;;;;;;;;;4974259;28;20049;-59
2021/10/07 02:07:38;;;;;;;47.63;23.77;;;;;;;;;;4973638;28;20050;-57
2021/10/07 02:10:08;;;;;;;70.80;30.65;;;;;;;;;;4977270;28;20042;-57
2021/10/07 02:12:35;;;;;;;66.70;32.28;;;;;;;;;;4974973;28;20514;-58
2021/10/07 02:15:01;;;;;;;70.80;34.88;;;;;;;;;;4976963;28;20034;-56
2021/10/07 02:17:27;;;;;;;69.97;35.42;;;;;;;;;;4974078;28;20125;-57
2021/10/07 02:19:53;;;;;;;76.22;36.65;;;;;;;;;;4980074;28;20054;-58
2021/10/07 02:22:19;;;;;;;69.05;34.67;;;;;;;;;;4998546;28;20102;-61
2021/10/07 02:24:44;;;;;;;72.78;38.45;;;;;;;;;;4978023;28;21244;-55
2021/10/07 02:27:10;;;;;;;84.95;38.65;;;;;;;;;;4996366;28;20034;-59
2021/10/07 02:29:36;;;;;;;74.32;36.92;;;;;;;;;;4982481;28;20446;-59
2021/10/07 02:32:05;;;;;;;87.60;37.50;;;;;;;;;;4980166;28;20072;-59
2021/10/07 02:34:31;;;;;;;78.72;37.28;;;;;;;;;;4982886;28;20510;-57
2021/10/07 02:36:57;;;;;;;93.65;39.60;;;;;;;;;;4979771;28;20772;-57
2021/10/07 02:39:23;;;;;;;71.18;36.28;;;;;;;;;;4974697;28;20115;-56
2021/10/07 02:41:49;;;;;;;83.10;38.70;;;;;;;;;;4976975;28;20069;-58
2021/10/07 02:44:15;;;;;;;93.30;38.00;;;;;;;;;;4975208;28;20125;-57
2021/10/07 02:46:41;;;;;;;63.05;31.25;;;;;;;;;;4973225;28;20038;-58
2021/10/07 02:49:07;;;;;;;75.05;33.70;;;;;;;;;;4977659;28;20492;-60
2021/10/07 02:51:33;;;;;;;76.25;36.15;;;;;;;;;;4971071;28;20129;-59
2021/10/07 02:53:59;;;;;;;73.65;36.88;;;;;;;;;;4972010;28;20074;-59
2021/10/07 02:56:24;;;;;;;89.15;39.03;;;;;;;;;;4969925;28;20038;-57
2021/10/07 02:58:50;;;;;;;82.80;38.42;;;;;;;;;;4987141;28;20364;-59
2021/10/07 03:01:16;;;;;;;84.35;37.20;;;;;;;;;;4973241;28;20209;-60
2021/10/07 03:03:42;;;;;;;79.82;36.78;;;;;;;;;;4970662;28;20505;-57
2021/10/07 03:06:08;;;;;;;77.95;34.78;;;;;;;;;;4971602;28;20043;-56
2021/10/07 03:08:34;;;;;;;73.85;33.60;;;;;;;;;;5001062;28;20138;-57
2021/10/07 03:10:59;;;;;;;60.88;26.85;;;;;;;;;;4973647;28;20099;-57
2021/10/07 03:13:25;;;;;;;54.00;24.70;;;;;;;;;;4970267;28;20149;-56
2021/10/07 03:15:51;;;;;;;39.38;20.27;;;;;;;;;;4973132;28;20078;-58
2021/10/07 03:18:17;;;;;;;45.72;19.60;;;;;;;;;;4972831;28;20047;-57
2021/10/07 03:20:43;;;;;;;39.22;18.85;;;;;;;;;;4971700;28;20127;-57
2021/10/07 03:23:09;;;;;;;36.67;16.60;;;;;;;;;;4971934;28;20057;-57
2021/10/07 03:25:35;;;;;;;36.85;16.45;;;;;;;;;;4973634;28;20070;-57
2021/10/07 03:28:01;;;;;;;31.90;14.48;;;;;;;;;;4975172;28;20616;-58
2021/10/07 03:30:27;;;;;;;28.13;14.00;;;;;;;;;;4976657;28;20090;-55
2021/10/07 03:32:53;;;;;;;33.33;15.15;;;;;;;;;;4976183;28;20042;-54
2021/10/07 03:35:18;;;;;;;32.10;14.77;;;;;;;;;;4975489;28;20462;-55
2021/10/07 03:37:44;;;;;;;31.73;14.73;;;;;;;;;;4974782;28;20483;-57
2021/10/07 03:40:11;;;;;;;29.35;13.77;;;;;;;;;;4975958;28;20054;-57
2021/10/07 03:42:37;;;;;;;28.23;14.88;;;;;;;;;;4977415;28;20034;-57
2021/10/07 03:45:04;;;;;;;25.38;12.75;;;;;;;;;;4977125;28;20046;-57
2021/10/07 03:47:30;;;;;;;25.98;13.73;;;;;;;;;;5007186;28;20037;-56
2021/10/07 03:49:59;;;;;;;26.98;13.32;;;;;;;;;;4977939;28;20141;-55
2021/10/07 03:52:25;;;;;;;28.00;12.50;;;;;;;;;;4977607;28;20038;-57
2021/10/07 03:54:52;;;;;;;24.50;12.32;;;;;;;;;;4978341;28;20047;-57
2021/10/07 03:57:18;;;;;;;21.23;11.50;;;;;;;;;;4980122;28;20031;-52
2021/10/07 03:59:44;;;;;;;24.15;11.68;;;;;;;;;;4981035;28;20402;-56
2021/10/07 04:02:10;;;;;;;25.88;11.35;;;;;;;;;;4984585;28;20047;-59
2021/10/07 04:04:36;;;;;;;23.77;10.48;;;;;;;;;;4980300;28;20038;-54
2021/10/07 04:07:02;;;;;;;21.27;10.45;;;;;;;;;;4981163;28;20044;-57
2021/10/07 04:09:28;;;;;;;27.38;11.20;;;;;;;;;;4983327;28;20048;-56
2021/10/07 04:11:54;;;;;;;20.55;11.32;;;;;;;;;;4984289;28;20053;-56
2021/10/07 04:14:20;;;;;;;21.38;10.60;;;;;;;;;;4980501;28;20053;-57
2021/10/07 04:16:46;;;;;;;23.77;11.63;;;;;;;;;;4981107;28;20031;-56
2021/10/07 04:19:12;;;;;;;21.17;11.00;;;;;;;;;;4981756;28;20519;-56
2021/10/07 04:21:39;;;;;;;22.48;11.13;;;;;;;;;;4981093;28;20133;-56
2021/10/07 04:24:05;;;;;;;24.80;11.25;;;;;;;;;;4983759;28;20035;-54
2021/10/07 04:26:32;;;;;;;22.65;11.68;;;;;;;;;;4982632;28;20954;-58
2021/10/07 04:28:58;;;;;;;29.50;12.18;;;;;;;;;;4986061;28;20039;-59
2021/10/07 04:31:24;;;;;;;23.40;11.48;;;;;;;;;;5012255;28;20046;-57
2021/10/07 04:33:50;;;;;;;26.90;12.05;;;;;;;;;;5003456;28;20601;-58
2021/10/07 04:36:16;;;;;;;22.10;11.23;;;;;;;;;;4998298;28;20054;-58
2021/10/07 04:38:42;;;;;;;31.90;12.38;;;;;;;;;;4982437;28;20100;-55
2021/10/07 04:41:08;;;;;;;22.25;11.10;;;;;;;;;;4983631;28;20055;-58
2021/10/07 04:43:34;;;;;;;20.98;11.30;;;;;;;;;;4988136;28;20349;-59
2021/10/07 04:46:00;;;;;;;23.15;11.57;;;;;;;;;;4990774;28;20052;-58
2021/10/07 04:48:26;;;;;;;22.30;11.27;;;;;;;;;;4995494;28;20105;-58
2021/10/07 04:50:51;;;;;;;30.48;11.93;;;;;;;;;;5000888;28;20030;-58
2021/10/07 04:53:17;;;;;;;24.75;11.40;;;;;;;;;;4996280;28;20050;-56
2021/10/07 04:55:43;;;;;;;25.90;12.00;;;;;;;;;;5006628;28;20870;-56
2021/10/07 04:58:09;;;;;;;26.75;11.30;;;;;;;;;;4991287;28;20030;-56
2021/10/07 05:00:35;;;;;;;22.13;10.57;;;;;;;;;;4982763;28;21520;-55
2021/10/07 05:03:01;;;;;;;26.23;9.60;;;;;;;;;;4980621;28;20541;-56
2021/10/07 05:05:27;;;;;;;24.83;10.10;;;;;;;;;;4975354;28;20792;-55
2021/10/07 05:07:53;;;;;;;19.77;9.45;;;;;;;;;;4975636;28;20105;-57
2021/10/07 05:10:19;;;;;;;21.20;9.93;;;;;;;;;;4974033;28;20042;-58
2021/10/07 05:12:45;;;;;;;24.92;10.35;;;;;;;;;;4991519;28;20039;-56
2021/10/07 05:15:11;;;;;;;18.83;8.70;;;;;;;;;;4968255;28;20045;-55
2021/10/07 05:17:36;;;;;;;18.48;8.40;;;;;;;;;;4975102;28;20046;-55
2021/10/07 05:20:04;;;;;;;17.67;7.30;;;;;;;;;;4977432;28;20058;-56
2021/10/07 05:22:30;;;;;;;17.98;8.00;;;;;;;;;;4975316;28;20034;-58
2021/10/07 05:24:56;;;;;;;20.02;7.47;;;;;;;;;;4976261;28;20042;-56
2021/10/07 05:27:22;;;;;;;13.85;6.25;;;;;;;;;;4974092;28;20052;-56
2021/10/07 05:29:47;;;;;;;15.07;7.30;;;;;;;;;;4980855;28;20874;-57
2021/10/07 05:32:13;;;;;;;16.60;7.18;;;;;;;;;;4977287;28;20047;-56
2021/10/07 05:34:39;;;;;;;16.38;7.68;;;;;;;;;;4978899;28;20121;-58
2021/10/07 05:37:05;;;;;;;17.00;7.70;;;;;;;;;;4994470;28;20038;-55
2021/10/07 05:39:31;;;;;;;22.25;8.00;;;;;;;;;;4983846;28;20173;-57
2021/10/07 05:41:57;;;;;;;15.93;8.13;;;;;;;;;;4980045;28;20034;-54
2021/10/07 05:44:23;;;;;;;18.77;9.40;;;;;;;;;;4979516;28;20050;-57
2021/10/07 05:46:48;;;;;;;24.63;9.73;;;;;;;;;;4979667;28;20038;-57
2021/10/07 05:49:14;;;;;;;22.90;10.55;;;;;;;;;;4977738;28;20125;-55
2021/10/07 05:51:41;;;;;;;24.80;12.05;;;;;;;;;;4977621;28;20089;-56
2021/10/07 05:54:07;;;;;;;26.98;11.45;;;;;;;;;;4980030;28;20857;-56
2021/10/07 05:56:33;;;;;;;21.98;11.32;;;;;;;;;;5008130;28;20037;-56
2021/10/07 05:58:59;;;;;;;21.40;11.45;;;;;;;;;;4979493;28;20447;-56
2021/10/07 06:01:25;;;;;;;23.25;11.82;;;;;;;;;;5007603;28;20096;-54
2021/10/07 06:03:51;;;;;;;25.67;11.88;;;;;;;;;;4977436;28;20041;-56
2021/10/07 06:06:17;;;;;;;20.60;10.40;;;;;;;;;;4974234;28;20051;-55
2021/10/07 06:08:42;;;;;;;24.52;12.57;;;;;;;;;;4975370;28;20084;-56
2021/10/07 06:11:08;;;;;;;25.15;11.95;;;;;;;;;;4977203;28;20050;-55
2021/10/07 06:13:34;;;;;;;31.80;13.73;;;;;;;;;;4974332;28;20049;-57
2021/10/07 06:16:00;;;;;;;32.50;14.65;;;;;;;;;;4976422;28;20047;-58
2021/10/07 06:18:26;;;;;;;35.83;14.73;;;;;;;;;;4973389;28;20053;-54
2021/10/07 06:20:52;;;;;;;33.33;16.17;;;;;;;;;;4974893;28;20185;-55
2021/10/07 06:23:17;;;;;;;35.40;17.23;;;;;;;;;;4975439;28;20049;-56
2021/10/07 06:25:43;;;;;;;28.23;15.27;;;;;;;;;;4975316;28;20042;-56
2021/10/07 06:28:09;;;;;;;37.33;17.75;;;;;;;;;;4976195;28;20053;-58
2021/10/07 06:30:36;;;;;;;39.67;18.17;;;;;;;;;;4972780;28;20042;-56
2021/10/07 06:33:02;;;;;;;34.97;17.60;;;;;;;;;;4974580;28;20367;-57
2021/10/07 06:35:28;;;;;;;44.40;20.08;;;;;;;;;;4975241;28;20053;-56
2021/10/07 06:37:54;;;;;;;45.60;20.98;;;;;;;;;;4977998;28;20038;-56
2021/10/07 06:40:19;;;;;;;51.00;20.52;;;;;;;;;;4974693;28;20096;-57
2021/10/07 06:42:46;;;;;;;46.53;20.67;;;;;;;;;;4994100;28;20391;-57
2021/10/07 06:45:11;;;;;;;42.38;20.13;;;;;;;;;;4980185;28;20045;-56
2021/10/07 06:47:38;;;;;;;37.83;20.17;;;;;;;;;;4976805;28;20145;-55
2021/10/07 06:50:05;;;;;;;40.35;22.17;;;;;;;;;;4978560;28;20116;-57
2021/10/07 06:52:31;;;;;;;43.33;21.10;;;;;;;;;;4978015;28;20027;-58
2021/10/07 06:54:57;;;;;;;49.78;21.27;;;;;;;;;;4977567;28;20042;-57
2021/10/07 06:57:23;;;;;;;45.85;21.85;;;;;;;;;;4992701;28;20054;-57
2021/10/07 06:59:49;;;;;;;41.83;21.73;;;;;;;;;;4980633;28;20061;-56
2021/10/07 07:02:15;;;;;;;46.25;21.23;;;;;;;;;;4982126;28;20052;-56
2021/10/07 07:04:41;;;;;;;47.67;22.25;;;;;;;;;;4985476;28;20054;-56
2021/10/07 07:07:07;;;;;;;48.08;21.58;;;;;;;;;;4990041;28;20038;-54
2021/10/07 07:09:32;;;;;;;53.25;21.27;;;;;;;;;;4979239;28;20077;-58
2021/10/07 07:11:58;;;;;;;48.95;22.58;;;;;;;;;;4977881;28;20043;-57
2021/10/07 07:14:24;;;;;;;47.70;22.10;;;;;;;;;;4992478;28;20439;-57
2021/10/07 07:16:50;;;;;;;47.28;22.08;;;;;;;;;;4978287;28;20042;-56
2021/10/07 07:19:16;;;;;;;49.17;22.77;;;;;;;;;;4977645;28;20054;-58
2021/10/07 07:21:42;;;;;;;49.22;21.38;;;;;;;;;;4979770;28;20655;-58
2021/10/07 07:24:08;;;;;;;43.15;21.05;;;;;;;;;;4978320;28;20038;-57
2021/10/07 07:26:35;;;;;;;40.13;20.00;;;;;;;;;;4978201;28;20038;-58
2021/10/07 07:29:01;;;;;;;47.20;20.92;;;;;;;;;;4978224;28;20483;-57
2021/10/07 07:31:27;;;;;;;46.75;21.70;;;;;;;;;;4978061;28;20049;-59
2021/10/07 07:33:53;;;;;;;49.55;21.50;;;;;;;;;;4979179;28;20046;-54
2021/10/07 07:36:21;;;;;;;42.13;21.25;;;;;;;;;;4978774;28;20073;-57
2021/10/07 07:38:47;;;;;;;42.10;20.35;;;;;;;;;;4998949;28;20040;-58
2021/10/07 07:41:13;;;;;;;40.13;20.52;;;;;;;;;;4981863;28;20151;-56
2021/10/07 07:43:40;;;;;;;47.88;21.15;;;;;;;;;;4979727;28;20050;-56
2021/10/07 07:46:06;;;;;;;41.05;20.48;;;;;;;;;;4980947;28;20065;-58
2021/10/07 07:48:32;;;;;;;49.15;22.63;;;;;;;;;;4981468;28;20054;-54
2021/10/07 07:50:58;;;;;;;46.47;21.98;;;;;;;;;;4981060;28;20048;-57
2021/10/07 07:53:26;;;;;;;44.42;21.00;;;;;;;;;;4979979;28;20046;-57
2021/10/07 07:55:52;;;;;;;46.17;20.45;;;;;;;;;;4992922;28;20036;-56
2021/10/07 07:58:18;;;;;;;40.90;20.10;;;;;;;;;;4981301;28;20051;-57
2021/10/07 08:00:45;;;;;;;40.30;19.20;;;;;;;;;;4981151;28;20065;-55
2021/10/07 08:03:11;;;;;;;44.38;20.73;;;;;;;;;;4977156;28;20175;-57
2021/10/07 08:05:37;;;;;;;44.40;20.48;;;;;;;;;;4975828;28;21112;-58
2021/10/07 08:08:03;;;;;;;44.25;20.75;;;;;;;;;;4978327;28;20150;-58
2021/10/07 08:10:29;;;;;;;43.53;20.27;;;;;;;;;;4992939;28;20068;-59
2021/10/07 08:12:55;;;;;;;40.80;20.17;;;;;;;;;;4979238;28;20114;-58
2021/10/07 08:15:21;;;;;;;44.60;20.55;;;;;;;;;;4975576;28;20121;-59
2021/10/07 08:17:47;;;;;;;43.28;20.15;;;;;;;;;;4998226;28;20490;-58
2021/10/07 08:20:14;;;;;;;46.17;19.27;;;;;;;;;;4982260;28;20057;-57
2021/10/07 08:22:40;;;;;;;34.83;19.30;;;;;;;;;;4977801;28;20072;-56
2021/10/07 08:25:07;;;;;;;41.28;19.17;;;;;;;;;;4976834;28;20050;-56
2021/10/07 08:27:33;;;;;;;44.42;19.88;;;;;;;;;;4976088;28;20131;-58
2021/10/07 08:29:59;;;;;;;40.88;20.00;;;;;;;;;;4978916;28;20054;-58
2021/10/07 08:32:25;;;;;;;41.30;19.73;;;;;;;;;;4980993;28;20030;-55
2021/10/07 08:34:51;;;;;;;45.05;20.45;;;;;;;;;;4979676;28;20039;-57
2021/10/07 08:37:17;;;;;;;43.08;20.75;;;;;;;;;;4978315;28;20581;-56
2021/10/07 08:39:43;;;;;;;39.45;19.90;;;;;;;;;;4994312;28;20058;-58
2021/10/07 08:42:09;;;;;;;40.63;20.15;;;;;;;;;;4978536;28;20030;-58
2021/10/07 08:44:35;;;;;;;44.65;20.40;;;;;;;;;;4976805;28;20053;-57
2021/10/07 08:47:01;;;;;;;40.00;20.13;;;;;;;;;;4978697;28;20094;-57
2021/10/07 08:49:32;;;;;;;40.67;20.33;;;;;;;;;;4978122;28;20121;-59
2021/10/07 08:51:58;;;;;;;42.65;20.13;;;;;;;;;;4978224;28;20058;-55
2021/10/07 08:54:24;;;;;;;44.50;19.75;;;;;;;;;;4976993;28;20499;-55
2021/10/07 08:56:49;;;;;;;48.45;20.55;;;;;;;;;;4975872;28;20035;-56
2021/10/07 08:59:16;;;;;;;42.72;21.23;;;;;;;;;;4977264;28;20042;-55
2021/10/07 09:01:44;;;;;;;44.10;20.42;;;;;;;;;;4975991;28;20038;-56
2021/10/07 09:04:25;;;;;;;40.45;20.25;;;;;;;;;;4975226;28;20073;-58
2021/10/07 09:06:53;;;;;;;42.10;20.80;;;;;;;;;;4973747;28;20391;-58
2021/10/07 09:09:21;;;;;;;42.03;20.15;;;;;;;;;;4974691;28;20042;-55
2021/10/07 09:11:52;;;;;;;42.67;21.25;;;;;;;;;;4976811;28;20450;-56
2021/10/07 09:14:21;;;;;;;44.22;20.80;;;;;;;;;;4976930;28;20134;-56
2021/10/07 09:16:49;;;;;;;47.20;21.45;;;;;;;;;;4975005;28;20110;-56
2021/10/07 09:19:18;;;;;;;45.20;21.92;;;;;;;;;;4977205;28;20074;-55
2021/10/07 09:21:48;;;;;;;45.05;20.83;;;;;;;;;;4976631;28;20034;-57
2021/10/07 09:24:34;;;;;;;52.03;24.27;;;;;;;;;;4983000;28;20042;-56
2021/10/07 09:27:01;;;;;;;46.80;22.52;;;;;;;;;;4994236;28;20053;-56
2021/10/07 09:29:31;;;;;;;47.65;22.92;;;;;;;;;;4995593;28;20462;-56
2021/10/07 09:31:57;;;;;;;45.35;22.30;;;;;;;;;;4995164;28;20042;-56
2021/10/07 09:34:23;;;;;;;49.03;24.75;;;;;;;;;;4985103;28;20092;-58
2021/10/07 09:36:51;;;;;;;43.45;22.27;;;;;;;;;;4994935;28;20103;-54
2021/10/07 09:39:19;;;;;;;64.03;25.42;;;;;;;;;;4996462;28;20046;-57
2021/10/07 09:41:45;;;;;;;61.03;26.52;;;;;;;;;;4974664;28;20487;-57
2021/10/07 09:44:11;;;;;;;55.75;27.92;;;;;;;;;;4977998;28;20196;-55
2021/10/07 09:46:39;;;;;;;58.67;27.25;;;;;;;;;;4974766;28;21631;-58
2021/10/07 09:49:05;;;;;;;57.63;26.58;;;;;;;;;;4979146;28;20613;-56
2021/10/07 09:51:57;;;;;;;61.17;27.40;;;;;;;;;;4978250;28;20042;-57
2021/10/07 09:54:31;;;;;;;69.47;28.35;;;;;;;;;;4976879;28;20512;-57
2021/10/07 09:56:59;;;;;;;56.72;27.55;;;;;;;;;;4988889;28;20039;-57
2021/10/07 09:59:25;;;;;;;58.60;27.33;;;;;;;;;;4998620;28;20057;-57
2021/10/07 10:01:54;;;;;;;58.50;27.90;;;;;;;;;;4998500;28;20045;-57
2021/10/07 10:04:20;;;;;;;55.38;28.63;;;;;;;;;;4997389;28;20038;-58
2021/10/07 10:06:46;;;;;;;54.75;29.20;;;;;;;;;;4994340;28;20030;-56
2021/10/07 10:09:12;;;;;;;63.17;29.63;;;;;;;;;;4988903;28;20034;-57
2021/10/07 10:11:40;;;;;;;60.55;29.75;;;;;;;;;;4981258;28;20046;-60
2021/10/07 10:14:07;;;;;;;64.53;29.75;;;;;;;;;;4980955;28;20049;-55
2021/10/07 10:16:35;;;;;;;66.55;30.05;;;;;;;;;;4978481;28;20637;-57
2021/10/07 10:19:02;;;;;;;67.18;30.02;;;;;;;;;;4978685;28;20106;-58
2021/10/07 10:21:31;;;;;;;68.85;30.73;;;;;;;;;;4978148;28;20883;-57
2021/10/07 10:23:58;;;;;;;59.95;28.77;;;;;;;;;;4978004;28;20128;-55
2021/10/07 10:26:24;;;;;;;62.15;31.70;;;;;;;;;;4973347;28;20073;-56
2021/10/07 10:28:52;;;;;;;79.32;32.80;;;;;;;;;;4996935;28;20038;-52
2021/10/07 10:31:26;;;;;;;64.95;30.83;;;;;;;;;;4977538;28;20031;-55
2021/10/07 10:34:00;;;;;;;66.35;32.08;;;;;;;;;;4989206;28;20053;-54
2021/10/07 10:36:32;;;;;;;68.10;32.53;;;;;;;;;;4977043;28;20038;-58
2021/10/07 10:39:00;;;;;;;64.15;30.75;;;;;;;;;;4978342;28;20129;-58
2021/10/07 10:41:45;;;;;;;65.75;32.20;;;;;;;;;;4978014;28;20050;-57
2021/10/07 10:44:31;;;;;;;69.70;29.92;;;;;;;;;;4977212;28;20038;-54
2021/10/07 10:46:58;;;;;;;65.35;30.35;;;;;;;;;;4995924;28;20064;-57
2021/10/07 10:49:34;;;;;;;66.30;30.05;;;;;;;;;;4996413;28;20131;-56
2021/10/07 10:52:02;;;;;;;64.22;30.08;;;;;;;;;;4995473;28;20416;-53
2021/10/07 10:54:31;;;;;;;63.50;31.15;;;;;;;;;;4994737;28;20062;-57
2021/10/07 10:56:59;;;;;;;68.88;31.33;;;;;;;;;;4994051;28;20049;-56
2021/10/07 10:59:25;;;;;;;70.32;31.40;;;;;;;;;;4993737;28;20494;-55
2021/10/07 11:02:10;;;;;;;63.13;32.28;;;;;;;;;;4994976;28;20053;-58
2021/10/07 11:04:54;;;;;;;63.13;31.00;;;;;;;;;;4994977;28;20042;-58
2021/10/07 11:07:22;;;;;;;66.07;31.38;;;;;;;;;;4996639;28;20034;-55
2021/10/07 11:09:58;;;;;;;72.88;32.58;;;;;;;;;;4996660;28;20111;-56
2021/10/07 11:12:28;;;;;;;67.55;30.48;;;;;;;;;;4998689;28;20038;-58
2021/10/07 11:14:55;;;;;;;69.25;30.55;;;;;;;;;;4994444;28;20042;-56
2021/10/07 11:17:22;;;;;;;70.72;30.02;;;;;;;;;;4997503;28;20045;-58
2021/10/07 11:19:49;;;;;;;68.53;32.30;;;;;;;;;;5015600;28;20718;-57
2021/10/07 11:22:15;;;;;;;71.63;30.38;;;;;;;;;;5002458;28;20043;-54
2021/10/07 11:24:48;;;;;;;60.70;29.70;;;;;;;;;;5001425;28;20060;-59
2021/10/07 11:27:13;;;;;;;65.05;29.73;;;;;;;;;;5001223;28;20042;-57
2021/10/07 11:29:39;;;;;;;73.38;31.48;;;;;;;;;;4998635;28;22088;-57
2021/10/07 11:32:05;;;;;;;73.32;30.40;;;;;;;;;;5001354;28;20098;-57
2021/10/07 11:34:31;;;;;;;68.85;30.13;;;;;;;;;;4996806;28;20068;-56
2021/10/07 11:36:57;;;;;;;66.60;30.40;;;;;;;;;;4996163;28;20396;-57
2021/10/07 11:39:23;;;;;;;58.40;29.95;;;;;;;;;;5008701;28;20148;-57
2021/10/07 11:41:49;;;;;;;63.10;30.15;;;;;;;;;;4994503;28;20042;-57
2021/10/07 11:44:15;;;;;;;62.40;29.63;;;;;;;;;;4993952;28;21001;-57
2021/10/07 11:46:41;;;;;;;78.38;30.25;;;;;;;;;;4997601;28;20049;-57
2021/10/07 11:49:07;;;;;;;58.15;29.98;;;;;;;;;;4997007;28;20042;-54
2021/10/07 11:51:35;;;;;;;58.67;28.55;;;;;;;;;;4999019;28;20045;-58
2021/10/07 11:54:04;;;;;;;72.53;29.70;;;;;;;;;;5000824;28;20606;-56
2021/10/07 11:56:32;;;;;;;61.47;29.30;;;;;;;;;;4997600;28;20084;-56
2021/10/07 11:59:00;;;;;;;71.93;31.23;;;;;;;;;;4995442;28;20050;-58
2021/10/07 12:01:30;;;;;;;61.60;29.30;;;;;;;;;;4994766;28;20073;-56
2021/10/07 12:03:57;;;;;;;67.85;30.15;;;;;;;;;;4997934;28;20136;-58
2021/10/07 12:06:23;;;;;;;65.60;29.70;;;;;;;;;;4998002;28;20089;-57
2021/10/07 12:08:49;;;;;;;65.10;30.50;;;;;;;;;;4996366;28;20178;-51
2021/10/07 12:11:17;;;;;;;64.07;28.52;;;;;;;;;;5000108;28;20054;-55
2021/10/07 12:13:47;;;;;;;64.18;28.67;;;;;;;;;;4999707;28;20105;-56
2021/10/07 12:16:14;;;;;;;58.53;27.55;;;;;;;;;;5001761;28;20550;-58
2021/10/07 12:18:45;;;;;;;67.28;30.83;;;;;;;;;;4995508;28;20050;-53
2021/10/07 12:21:21;;;;;;;74.72;29.17;;;;;;;;;;4999676;28;20061;-58
2021/10/07 12:23:50;;;;;;;64.55;28.63;;;;;;;;;;4998976;28;20080;-57
2021/10/07 12:26:23;;;;;;;71.25;30.40;;;;;;;;;;4982132;28;20129;-58
2021/10/07 12:28:53;;;;;;;55.70;28.77;;;;;;;;;;4992829;28;20042;-56
2021/10/07 12:31:19;;;;;;;61.92;29.20;;;;;;;;;;4976925;28;20134;-56
2021/10/07 12:33:52;;;;;;;59.95;28.58;;;;;;;;;;4976040;28;20094;-58
2021/10/07 12:36:18;;;;;;;43.30;22.35;;;;;;;;;;4977234;28;20034;-59
2021/10/07 12:38:47;;;;;;;66.72;30.10;;;;;;;;;;4978160;28;20085;-58
2021/10/07 12:41:13;;;;;;;62.65;28.60;;;;;;;;;;4976266;28;20049;-54
2021/10/07 12:43:52;;;;;;;58.47;27.15;;;;;;;;;;4976122;28;20038;-58
2021/10/07 12:46:20;;;;;;;65.03;29.30;;;;;;;;;;4976202;28;20080;-54
2021/10/07 12:48:47;;;;;;;61.40;27.23;;;;;;;;;;4976083;28;20049;-58
2021/10/07 12:51:13;;;;;;;62.63;27.92;;;;;;;;;;5005282;28;20458;-57
2021/10/07 12:53:41;;;;;;;56.30;26.55;;;;;;;;;;4977468;28;20050;-58
2021/10/07 12:56:08;;;;;;;59.35;28.20;;;;;;;;;;4979933;28;20034;-57
2021/10/07 12:58:33;;;;;;;58.22;27.85;;;;;;;;;;4975809;28;20046;-58
2021/10/07 13:01:12;;;;;;;54.45;26.40;;;;;;;;;;4978051;28;20077;-58
2021/10/07 13:03:38;;;;;;;59.50;26.13;;;;;;;;;;4974892;28;22160;-57
2021/10/07 13:06:08;;;;;;;61.88;27.38;;;;;;;;;;4976313;28;20085;-58
2021/10/07 13:08:34;;;;;;;53.47;25.88;;;;;;;;;;4974804;28;20054;-59
2021/10/07 13:11:01;;;;;;;62.17;26.63;;;;;;;;;;4991187;28;20072;-54
2021/10/07 13:13:27;;;;;;;52.45;25.67;;;;;;;;;;4978225;28;20035;-57
2021/10/07 13:15:54;;;;;;;62.70;27.48;;;;;;;;;;4992671;28;20081;-58
2021/10/07 13:18:20;;;;;;;58.90;26.77;;;;;;;;;;4976852;28;20072;-59
2021/10/07 13:20:47;;;;;;;59.13;28.05;;;;;;;;;;4977847;28;20054;-58
2021/10/07 13:23:13;;;;;;;55.75;26.65;;;;;;;;;;4976975;28;20454;-56
2021/10/07 13:25:42;;;;;;;56.10;25.42;;;;;;;;;;4977273;28;20222;-57
2021/10/07 13:28:08;;;;;;;58.05;24.80;;;;;;;;;;4975130;28;20109;-57
2021/10/07 13:30:34;;;;;;;53.63;24.33;;;;;;;;;;4990198;28;20419;-58
2021/10/07 13:33:00;;;;;;;57.70;25.75;;;;;;;;;;4975018;28;20435;-58
2021/10/07 13:35:27;;;;;;;58.70;24.13;;;;;;;;;;4990025;28;20038;-57
2021/10/07 13:37:53;;;;;;;57.03;26.08;;;;;;;;;;4972618;28;20042;-58
2021/10/07 13:40:20;;;;;;;59.92;25.73;;;;;;;;;;4973182;28;20042;-57
2021/10/07 13:42:46;;;;;;;53.25;26.05;;;;;;;;;;4994335;28;21044;-56
2021/10/07 13:45:15;;;;;;;53.83;23.17;;;;;;;;;;4996479;28;20062;-57
2021/10/07 13:47:41;;;;;;;50.42;23.45;;;;;;;;;;4976515;28;20125;-58
2021/10/07 13:50:07;;;;;;;50.40;21.17;;;;;;;;;;4980849;28;20142;-57
2021/10/07 13:52:33;;;;;;;53.35;22.80;;;;;;;;;;4976976;28;20034;-58
2021/10/07 13:54:59;;;;;;;43.72;22.20;;;;;;;;;;4976455;28;20148;-58
2021/10/07 13:57:25;;;;;;;44.60;20.73;;;;;;;;;;4977048;28;20416;-55
2021/10/07 13:59:51;;;;;;;34.67;18.48;;;;;;;;;;4978703;28;20117;-57
2021/10/07 14:02:17;;;;;;;45.25;18.48;;;;;;;;;;4975561;28;20453;-57
2021/10/07 14:04:43;;;;;;;41.40;19.15;;;;;;;;;;4979796;28;20122;-57
2021/10/07 14:07:08;;;;;;;42.20;18.23;;;;;;;;;;4981732;28;20038;-58
2021/10/07 14:09:35;;;;;;;38.00;17.00;;;;;;;;;;4971586;28;20058;-57
2021/10/07 14:12:02;;;;;;;37.83;17.00;;;;;;;;;;4975970;28;20163;-57
2021/10/07 14:14:28;;;;;;;35.78;16.20;;;;;;;;;;4978315;28;20038;-57
2021/10/07 14:16:54;;;;;;;36.72;17.42;;;;;;;;;;4975611;28;20108;-56